sensor_id;sensor_type;location;lat;lon;timestamp;pressure;altitude;pressure_sealevel;temperature;humidity
45467;BME280;31212;49.734;8.490;2022-09-03T00:00:00;99827.72;;;19.85;47.95
45467;BME280;31212;49.734;8.490;2022-09-03T00:02:37;99824.28;;;19.82;47.85
45467;BME280;31212;49.734;8.490;2022-09-03T00:05:07;99847.78;;;19.87;48.50
45467;BME280;31212;49.734;8.490;2022-09-03T00:07:39;99835.63;;;19.85;48.29
45467;BME280;31212;49.734;8.490;2022-09-03T00:10:13;99843.75;;;19.78;48.65
45467;BME280;31212;49.734;8.490;2022-09-03T00:12:43;99834.16;;;19.77;48.61
45467;BME280;31212;49.734;8.490;2022-09-03T00:15:12;99848.94;;;19.81;48.98
45467;BME280;31212;49.734;8.490;2022-09-03T00:17:41;99854.06;;;19.85;49.05
45467;BME280;31212;49.734;8.490;2022-09-03T00:20:14;99853.50;;;19.97;49.28
45467;BME280;31212;49.734;8.490;2022-09-03T00:22:45;99849.06;;;19.97;49.24
45467;BME280;31212;49.734;8.490;2022-09-03T00:25:19;99847.72;;;19.89;49.22
45467;BME280;31212;49.734;8.490;2022-09-03T00:27:48;99836.53;;;19.83;49.09
45467;BME280;31212;49.734;8.490;2022-09-03T00:30:18;99845.72;;;19.53;49.75
45467;BME280;31212;49.734;8.490;2022-09-03T00:32:47;99850.34;;;19.47;49.83
45467;BME280;31212;49.734;8.490;2022-09-03T00:35:16;99846.66;;;19.31;50.11
45467;BME280;31212;49.734;8.490;2022-09-03T00:37:45;99849.19;;;19.34;50.16
45467;BME280;31212;49.734;8.490;2022-09-03T00:40:30;99838.50;;;19.37;50.11
45467;BME280;31212;49.734;8.490;2022-09-03T00:43:04;99838.38;;;19.40;49.92
45467;BME280;31212;49.734;8.490;2022-09-03T00:45:39;99831.91;;;19.47;49.67
45467;BME280;31212;49.734;8.490;2022-09-03T00:48:11;99853.03;;;19.46;50.09
45467;BME280;31212;49.734;8.490;2022-09-03T00:50:49;99850.09;;;19.54;50.10
45467;BME280;31212;49.734;8.490;2022-09-03T00:53:32;99852.59;;;19.57;50.19
45467;BME280;31212;49.734;8.490;2022-09-03T00:56:07;99836.25;;;19.69;49.70
45467;BME280;31212;49.734;8.490;2022-09-03T00:58:51;99815.44;;;19.83;49.25
45467;BME280;31212;49.734;8.490;2022-09-03T01:01:25;99822.63;;;19.80;49.31
45467;BME280;31212;49.734;8.490;2022-09-03T01:04:00;99822.38;;;19.86;49.06
45467;BME280;31212;49.734;8.490;2022-09-03T01:06:38;99812.97;;;19.60;49.58
45467;BME280;31212;49.734;8.490;2022-09-03T01:09:19;99804.38;;;19.75;49.39
45467;BME280;31212;49.734;8.490;2022-09-03T01:11:58;99810.38;;;19.79;49.31
45467;BME280;31212;49.734;8.490;2022-09-03T01:14:36;99815.97;;;19.92;49.28
45467;BME280;31212;49.734;8.490;2022-09-03T01:17:13;99807.41;;;19.87;49.26
45467;BME280;31212;49.734;8.490;2022-09-03T01:19:57;99792.47;;;19.87;49.27
45467;BME280;31212;49.734;8.490;2022-09-03T01:25:34;99820.56;;;19.87;49.53
45467;BME280;31212;49.734;8.490;2022-09-03T01:28:18;99811.09;;;19.82;49.69
45467;BME280;31212;49.734;8.490;2022-09-03T01:30:53;99823.78;;;19.93;49.51
45467;BME280;31212;49.734;8.490;2022-09-03T01:33:28;99827.72;;;20.04;49.83
45467;BME280;31212;49.734;8.490;2022-09-03T01:36:01;99820.56;;;20.07;49.53
45467;BME280;31212;49.734;8.490;2022-09-03T01:38:30;99841.81;;;20.03;49.87
45467;BME280;31212;49.734;8.490;2022-09-03T01:41:07;99834.13;;;19.98;49.91
45467;BME280;31212;49.734;8.490;2022-09-03T01:44:01;99842.44;;;19.89;50.29
45467;BME280;31212;49.734;8.490;2022-09-03T01:46:38;99848.56;;;19.89;50.60
45467;BME280;31212;49.734;8.490;2022-09-03T01:49:12;99855.47;;;19.92;50.57
45467;BME280;31212;49.734;8.490;2022-09-03T01:51:44;99843.28;;;19.89;50.53
45467;BME280;31212;49.734;8.490;2022-09-03T01:54:42;99847.78;;;19.87;50.53
45467;BME280;31212;49.734;8.490;2022-09-03T01:57:34;99835.13;;;19.95;50.24
45467;BME280;31212;49.734;8.490;2022-09-03T02:00:08;99836.47;;;19.85;50.19
45467;BME280;31212;49.734;8.490;2022-09-03T02:02:38;99838.25;;;19.85;50.22
45467;BME280;31212;49.734;8.490;2022-09-03T02:05:08;99836.97;;;19.73;50.38
45467;BME280;31212;49.734;8.490;2022-09-03T02:07:37;99833.41;;;19.74;50.36
45467;BME280;31212;49.734;8.490;2022-09-03T02:10:06;99838.25;;;19.64;50.56
45467;BME280;31212;49.734;8.490;2022-09-03T02:12:34;99814.72;;;19.59;50.15
45467;BME280;31212;49.734;8.490;2022-09-03T02:15:08;99827.69;;;19.43;50.90
45467;BME280;31212;49.734;8.490;2022-09-03T02:17:36;99838.94;;;19.67;50.51
45467;BME280;31212;49.734;8.490;2022-09-03T02:20:06;99821.81;;;19.78;50.05
45467;BME280;31212;49.734;8.490;2022-09-03T02:22:34;99832.59;;;19.73;50.21
45467;BME280;31212;49.734;8.490;2022-09-03T02:25:00;99841.03;;;19.81;50.23
45467;BME280;31212;49.734;8.490;2022-09-03T02:27:27;99846.88;;;19.88;50.07
45467;BME280;31212;49.734;8.490;2022-09-03T02:29:54;99832.72;;;20.10;49.74
45467;BME280;31212;49.734;8.490;2022-09-03T02:32:21;99819.81;;;20.04;49.64
45467;BME280;31212;49.734;8.490;2022-09-03T02:34:48;99832.66;;;20.11;49.68
45467;BME280;31212;49.734;8.490;2022-09-03T02:37:17;99829.16;;;20.11;49.70
45467;BME280;31212;49.734;8.490;2022-09-03T02:39:44;99857.22;;;20.12;50.16
45467;BME280;31212;49.734;8.490;2022-09-03T02:42:12;99855.38;;;20.14;50.28
45467;BME280;31212;49.734;8.490;2022-09-03T02:44:41;99860.66;;;20.14;50.55
45467;BME280;31212;49.734;8.490;2022-09-03T02:47:10;99860.25;;;20.23;50.61
45467;BME280;31212;49.734;8.490;2022-09-03T02:49:38;99858.72;;;20.17;50.72
45467;BME280;31212;49.734;8.490;2022-09-03T02:52:07;99845.97;;;20.08;50.46
45467;BME280;31212;49.734;8.490;2022-09-03T02:54:36;99824.31;;;20.02;50.33
45467;BME280;31212;49.734;8.490;2022-09-03T02:57:04;99831.59;;;19.96;50.06
45467;BME280;31212;49.734;8.490;2022-09-03T06:03:33;100193.69;;;14.36;89.67
45467;BME280;31212;49.734;8.490;2022-09-03T06:05:59;100189.13;;;14.49;90.10
45467;BME280;31212;49.734;8.490;2022-09-03T06:08:26;100188.91;;;14.61;89.83
45467;BME280;31212;49.734;8.490;2022-09-03T06:10:56;100179.16;;;14.74;89.54
45467;BME280;31212;49.734;8.490;2022-09-03T06:13:23;100182.25;;;14.95;88.32
45467;BME280;31212;49.734;8.490;2022-09-03T06:15:54;100165.59;;;15.02;87.00
45467;BME280;31212;49.734;8.490;2022-09-03T06:18:21;100172.19;;;15.20;86.83
45467;BME280;31212;49.734;8.490;2022-09-03T06:20:54;100166.53;;;15.42;85.79
45467;BME280;31212;49.734;8.490;2022-09-03T06:23:20;100167.13;;;15.55;85.41
45467;BME280;31212;49.734;8.490;2022-09-03T06:25:47;100171.28;;;15.65;85.15
45467;BME280;31212;49.734;8.490;2022-09-03T06:28:13;100173.41;;;15.88;84.67
45467;BME280;31212;49.734;8.490;2022-09-03T06:30:40;100149.28;;;16.13;82.79
45467;BME280;31212;49.734;8.490;2022-09-03T06:33:06;100099.38;;;16.19;80.09
45467;BME280;31212;49.734;8.490;2022-09-03T06:35:33;100084.13;;;15.99;78.95
45467;BME280;31212;49.734;8.490;2022-09-03T06:38:03;100083.22;;;16.02;78.40
45467;BME280;31212;49.734;8.490;2022-09-03T06:40:29;100100.69;;;16.01;78.71
45467;BME280;31212;49.734;8.490;2022-09-03T06:42:56;100117.59;;;15.88;79.66
45467;BME280;31212;49.734;8.490;2022-09-03T06:45:26;100140.09;;;15.95;80.37
45467;BME280;31212;49.734;8.490;2022-09-03T06:47:53;100144.00;;;16.14;80.03
45467;BME280;31212;49.734;8.490;2022-09-03T06:50:20;100126.75;;;16.06;79.45
45467;BME280;31212;49.734;8.490;2022-09-03T06:52:50;100136.41;;;16.04;79.40
45467;BME280;31212;49.734;8.490;2022-09-03T06:55:18;100147.81;;;15.62;80.53
45467;BME280;31212;49.734;8.490;2022-09-03T06:57:45;100172.59;;;15.44;81.68
45467;BME280;31212;49.734;8.490;2022-09-03T07:00:13;100189.56;;;15.24;82.98
45467;BME280;31212;49.734;8.490;2022-09-03T07:02:39;100204.53;;;15.16;83.91
45467;BME280;31212;49.734;8.490;2022-09-03T07:05:07;100218.63;;;15.07;85.83
45467;BME280;31212;49.734;8.490;2022-09-03T07:07:33;100226.06;;;15.29;87.80
45467;BME280;31212;49.734;8.490;2022-09-03T07:10:01;100224.44;;;15.23;88.96
45467;BME280;31212;49.734;8.490;2022-09-03T07:12:29;100216.44;;;15.31;88.62
45467;BME280;31212;49.734;8.490;2022-09-03T07:15:02;100210.38;;;15.30;87.67
45467;BME280;31212;49.734;8.490;2022-09-03T07:17:28;100204.13;;;15.38;87.21
45467;BME280;31212;49.734;8.490;2022-09-03T07:19:55;100202.00;;;15.55;86.83
45467;BME280;31212;49.734;8.490;2022-09-03T07:22:21;100211.81;;;15.44;87.10
45467;BME280;31212;49.734;8.490;2022-09-03T07:24:48;100208.09;;;15.56;86.67
45467;BME280;31212;49.734;8.490;2022-09-03T07:27:16;100206.38;;;15.55;86.05
45467;BME280;31212;49.734;8.490;2022-09-03T07:29:44;100200.13;;;15.62;85.31
45467;BME280;31212;49.734;8.490;2022-09-03T07:32:10;100207.53;;;15.40;85.40
45467;BME280;31212;49.734;8.490;2022-09-03T07:34:37;100229.16;;;15.50;86.25
45467;BME280;31212;49.734;8.490;2022-09-03T07:37:03;100232.53;;;15.55;86.46
45467;BME280;31212;49.734;8.490;2022-09-03T07:39:31;100243.09;;;15.50;87.31
45467;BME280;31212;49.734;8.490;2022-09-03T07:41:58;100238.31;;;15.71;87.04
45467;BME280;31212;49.734;8.490;2022-09-03T07:44:25;100224.19;;;15.79;86.51
45467;BME280;31212;49.734;8.490;2022-09-03T07:46:54;100218.59;;;15.98;85.78
45467;BME280;31212;49.734;8.490;2022-09-03T07:49:20;100225.16;;;16.16;85.79
45467;BME280;31212;49.734;8.490;2022-09-03T07:51:47;100245.16;;;16.20;86.52
45467;BME280;31212;49.734;8.490;2022-09-03T07:54:17;100254.53;;;16.30;87.00
45467;BME280;31212;49.734;8.490;2022-09-03T07:56:44;100236.22;;;16.65;85.59
45467;BME280;31212;49.734;8.490;2022-09-03T07:59:10;100218.84;;;16.61;84.63
45467;BME280;31212;49.734;8.490;2022-09-03T08:01:37;100224.47;;;16.45;84.59
45467;BME280;31212;49.734;8.490;2022-09-03T08:04:05;100212.91;;;16.89;83.75
45467;BME280;31212;49.734;8.490;2022-09-03T08:06:32;100207.72;;;17.20;83.49
45467;BME280;31212;49.734;8.490;2022-09-03T08:09:00;100172.53;;;17.27;81.84
45467;BME280;31212;49.734;8.490;2022-09-03T08:11:28;100163.03;;;17.23;81.36
45467;BME280;31212;49.734;8.490;2022-09-03T08:13:57;100147.22;;;17.56;80.11
45467;BME280;31212;49.734;8.490;2022-09-03T08:16:26;100101.09;;;17.76;78.23
45467;BME280;31212;49.734;8.490;2022-09-03T08:18:53;100133.72;;;17.69;78.96
45467;BME280;31212;49.734;8.490;2022-09-03T08:21:22;100133.94;;;18.44;78.68
45467;BME280;31212;49.734;8.490;2022-09-03T08:23:50;100132.38;;;18.91;78.11
45467;BME280;31212;49.734;8.490;2022-09-03T08:26:18;100091.00;;;18.71;76.51
45467;BME280;31212;49.734;8.490;2022-09-03T08:28:45;100061.97;;;19.21;74.43
45467;BME280;31212;49.734;8.490;2022-09-03T08:31:13;100061.03;;;19.90;73.39
45467;BME280;31212;49.734;8.490;2022-09-03T08:33:42;100021.00;;;20.44;71.47
45467;BME280;31212;49.734;8.490;2022-09-03T08:36:11;100020.75;;;20.09;71.45
45467;BME280;31212;49.734;8.490;2022-09-03T08:38:39;100024.09;;;19.92;71.48
45467;BME280;31212;49.734;8.490;2022-09-03T08:41:11;100067.56;;;19.81;72.69
45467;BME280;31212;49.734;8.490;2022-09-03T08:43:54;100037.81;;;20.41;71.15
45467;BME280;31212;49.734;8.490;2022-09-03T08:46:24;100092.22;;;19.79;73.26
45467;BME280;31212;49.734;8.490;2022-09-03T08:48:53;100099.28;;;20.00;73.00
45467;BME280;31212;49.734;8.490;2022-09-03T08:51:22;100083.16;;;20.08;71.92
45467;BME280;31212;49.734;8.490;2022-09-03T08:53:54;100055.91;;;20.08;70.96
45467;BME280;31212;49.734;8.490;2022-09-03T08:56:25;99998.16;;;20.24;69.02
45467;BME280;31212;49.734;8.490;2022-09-03T08:58:53;99998.81;;;20.08;68.89
45467;BME280;31212;49.734;8.490;2022-09-03T09:01:33;100056.31;;;19.98;70.19
45467;BME280;31212;49.734;8.490;2022-09-03T09:04:09;100074.50;;;19.82;70.69
45467;BME280;31212;49.734;8.490;2022-09-03T09:06:49;100110.94;;;19.71;71.62
45467;BME280;31212;49.734;8.490;2022-09-03T09:09:26;100121.22;;;19.55;71.83
45467;BME280;31212;49.734;8.490;2022-09-03T09:12:07;100140.81;;;19.01;72.79
45467;BME280;31212;49.734;8.490;2022-09-03T09:14:44;100172.47;;;18.97;74.18
45467;BME280;31212;49.734;8.490;2022-09-03T09:17:24;100181.97;;;19.02;74.55
45467;BME280;31212;49.734;8.490;2022-09-03T09:20:03;100178.44;;;19.03;74.85
45467;BME280;31212;49.734;8.490;2022-09-03T09:22:35;100201.25;;;19.27;75.92
45467;BME280;31212;49.734;8.490;2022-09-03T09:25:09;100185.28;;;19.32;75.67
45467;BME280;31212;49.734;8.490;2022-09-03T09:27:42;100122.19;;;19.53;73.32
45467;BME280;31212;49.734;8.490;2022-09-03T09:30:12;100117.59;;;19.81;72.69
45467;BME280;31212;49.734;8.490;2022-09-03T09:32:42;100072.16;;;20.19;70.63
45467;BME280;31212;49.734;8.490;2022-09-03T09:35:09;100024.75;;;21.35;68.06
45467;BME280;31212;49.734;8.490;2022-09-03T09:37:46;99885.97;;;22.33;63.13
45467;BME280;31212;49.734;8.490;2022-09-03T09:40:23;99816.03;;;22.71;60.54
45467;BME280;31212;49.734;8.490;2022-09-03T09:42:50;99866.19;;;22.88;60.64
45467;BME280;31212;49.734;8.490;2022-09-03T09:45:23;99939.31;;;21.18;63.86
45467;BME280;31212;49.734;8.490;2022-09-03T09:47:54;99865.63;;;22.01;61.00
45467;BME280;31212;49.734;8.490;2022-09-03T09:50:21;99813.66;;;22.50;59.08
45467;BME280;31212;49.734;8.490;2022-09-03T09:52:58;99789.38;;;22.74;58.26
45467;BME280;31212;49.734;8.490;2022-09-03T09:55:28;99795.53;;;24.36;56.91
45467;BME280;31212;49.734;8.490;2022-09-03T09:58:04;99651.28;;;25.67;52.00
45467;BME280;31212;49.734;8.490;2022-09-03T10:00:34;99587.38;;;26.29;48.83
45467;BME280;31212;49.734;8.490;2022-09-03T10:03:06;99648.22;;;25.61;50.20
45467;BME280;31212;49.734;8.490;2022-09-03T10:05:35;99641.63;;;25.28;50.10
45467;BME280;31212;49.734;8.490;2022-09-03T10:08:16;99692.53;;;25.09;51.06
45467;BME280;31212;49.734;8.490;2022-09-03T10:10:47;99710.63;;;25.29;51.06
45467;BME280;31212;49.734;8.490;2022-09-03T10:13:17;99693.63;;;25.95;49.76
45467;BME280;31212;49.734;8.490;2022-09-03T10:15:50;99682.56;;;25.51;50.40
45467;BME280;31212;49.734;8.490;2022-09-03T10:18:26;99750.38;;;25.57;51.11
45467;BME280;31212;49.734;8.490;2022-09-03T10:21:00;99766.94;;;25.86;51.09
45467;BME280;31212;49.734;8.490;2022-09-03T10:23:32;99756.88;;;25.52;51.21
45467;BME280;31212;49.734;8.490;2022-09-03T10:26:03;99757.66;;;25.14;51.59
45467;BME280;31212;49.734;8.490;2022-09-03T10:28:34;99827.19;;;24.25;54.18
45467;BME280;31212;49.734;8.490;2022-09-03T10:31:29;99881.44;;;23.76;55.89
45467;BME280;31212;49.734;8.490;2022-09-03T10:34:06;99871.06;;;24.30;55.20
45467;BME280;31212;49.734;8.490;2022-09-03T10:36:39;99875.88;;;24.24;55.35
45467;BME280;31212;49.734;8.490;2022-09-03T10:39:14;99875.31;;;23.90;55.56
45467;BME280;31212;49.734;8.490;2022-09-03T10:41:57;99905.56;;;24.16;56.01
45467;BME280;31212;49.734;8.490;2022-09-03T10:44:53;99906.78;;;24.25;56.25
45467;BME280;31212;49.734;8.490;2022-09-03T10:47:49;99894.03;;;25.94;54.45
45467;BME280;31212;49.734;8.490;2022-09-03T10:50:22;99743.81;;;27.32;49.94
45467;BME280;31212;49.734;8.490;2022-09-03T10:53:06;99702.91;;;28.22;48.16
45467;BME280;31212;49.734;8.490;2022-09-03T10:55:43;99701.50;;;28.39;48.04
45467;BME280;31212;49.734;8.490;2022-09-03T10:58:28;99581.31;;;29.94;43.95
45467;BME280;31212;49.734;8.490;2022-09-03T11:01:02;99560.53;;;30.55;42.88
45467;BME280;31212;49.734;8.490;2022-09-03T11:03:44;99594.47;;;28.84;44.83
45467;BME280;31212;49.734;8.490;2022-09-03T11:06:16;99631.50;;;28.99;45.61
45467;BME280;31212;49.734;8.490;2022-09-03T11:08:48;99677.38;;;29.25;46.05
45467;BME280;31212;49.734;8.490;2022-09-03T11:11:20;99680.75;;;30.09;45.41
45467;BME280;31212;49.734;8.490;2022-09-03T11:13:55;99611.69;;;29.83;44.58
45467;BME280;31212;49.734;8.490;2022-09-03T11:16:27;99581.88;;;28.65;45.16
45467;BME280;31212;49.734;8.490;2022-09-03T11:19:00;99626.34;;;29.38;45.22
45467;BME280;31212;49.734;8.490;2022-09-03T11:21:30;99631.56;;;29.90;44.66
45467;BME280;31212;49.734;8.490;2022-09-03T11:24:04;99632.44;;;29.50;45.19
45467;BME280;31212;49.734;8.490;2022-09-03T11:26:33;99636.31;;;28.74;45.90
45467;BME280;31212;49.734;8.490;2022-09-03T11:29:07;99634.94;;;29.11;45.73
45467;BME280;31212;49.734;8.490;2022-09-03T11:31:44;99646.44;;;29.01;45.68
45467;BME280;31212;49.734;8.490;2022-09-03T11:34:13;99703.69;;;27.79;48.48
45467;BME280;31212;49.734;8.490;2022-09-03T11:36:41;99748.25;;;25.62;51.75
45467;BME280;31212;49.734;8.490;2022-09-03T11:39:18;99796.56;;;26.80;51.21
45467;BME280;31212;49.734;8.490;2022-09-03T11:41:56;99794.28;;;26.38;51.37
45467;BME280;31212;49.734;8.490;2022-09-03T11:44:34;99822.34;;;25.66;52.97
45467;BME280;31212;49.734;8.490;2022-09-03T11:47:13;99933.78;;;25.29;55.69
45467;BME280;31212;49.734;8.490;2022-09-03T11:49:44;99892.16;;;26.96;53.43
45467;BME280;31212;49.734;8.490;2022-09-03T11:52:11;99858.31;;;27.09;52.51
45467;BME280;31212;49.734;8.490;2022-09-03T11:54:43;99783.47;;;27.01;51.25
45467;BME280;31212;49.734;8.490;2022-09-03T11:57:12;99786.25;;;27.11;50.78
45467;BME280;31212;49.734;8.490;2022-09-03T11:59:42;99722.78;;;26.93;50.08
45467;BME280;31212;49.734;8.490;2022-09-03T12:02:19;99696.03;;;27.29;49.05
45467;BME280;31212;49.734;8.490;2022-09-03T12:04:57;99708.38;;;26.96;49.44
45467;BME280;31212;49.734;8.490;2022-09-03T12:07:44;99798.41;;;26.42;51.97
45467;BME280;31212;49.734;8.490;2022-09-03T12:10:21;99769.03;;;27.50;50.28
45467;BME280;31212;49.734;8.490;2022-09-03T12:13:00;99773.66;;;27.01;50.50
45467;BME280;31212;49.734;8.490;2022-09-03T12:15:49;99797.28;;;27.87;50.42
45467;BME280;31212;49.734;8.490;2022-09-03T12:18:21;99665.25;;;28.04;47.75
45467;BME280;31212;49.734;8.490;2022-09-03T12:21:00;99609.06;;;28.06;46.71
45467;BME280;31212;49.734;8.490;2022-09-03T12:23:28;99637.72;;;28.03;47.10
45467;BME280;31212;49.734;8.490;2022-09-03T12:25:57;99666.78;;;27.40;48.27
45467;BME280;31212;49.734;8.490;2022-09-03T12:28:28;99637.91;;;27.57;47.75
45467;BME280;31212;49.734;8.490;2022-09-03T12:31:05;99648.41;;;28.03;47.15
45467;BME280;31212;49.734;8.490;2022-09-03T12:33:47;99636.22;;;28.11;47.11
45467;BME280;31212;49.734;8.490;2022-09-03T12:36:14;99652.66;;;28.27;47.26
45467;BME280;31212;49.734;8.490;2022-09-03T12:38:41;99626.44;;;28.32;46.92
45467;BME280;31212;49.734;8.490;2022-09-03T12:41:19;99616.78;;;28.62;46.43
45467;BME280;31212;49.734;8.490;2022-09-03T12:43:50;99574.19;;;28.61;45.50
45467;BME280;31212;49.734;8.490;2022-09-03T12:46:21;99628.75;;;28.26;46.97
45467;BME280;31212;49.734;8.490;2022-09-03T12:48:53;99674.25;;;27.80;48.11
45467;BME280;31212;49.734;8.490;2022-09-03T12:51:19;99673.03;;;27.73;48.65
45467;BME280;31212;49.734;8.490;2022-09-03T12:53:46;99655.41;;;27.93;47.98
45467;BME280;31212;49.734;8.490;2022-09-03T12:56:14;99633.16;;;28.48;46.58
45467;BME280;31212;49.734;8.490;2022-09-03T12:58:49;99579.53;;;29.73;44.20
45467;BME280;31212;49.734;8.490;2022-09-03T13:01:21;99544.38;;;30.17;42.79
45467;BME280;31212;49.734;8.490;2022-09-03T13:03:53;99566.47;;;30.48;43.02
45467;BME280;31212;49.734;8.490;2022-09-03T13:06:24;99511.91;;;30.87;41.61
45467;BME280;31212;49.734;8.490;2022-09-03T13:08:55;99483.28;;;30.40;42.01
45467;BME280;31212;49.734;8.490;2022-09-03T13:11:23;99470.50;;;29.16;42.69
45467;BME280;31212;49.734;8.490;2022-09-03T13:13:53;99595.09;;;30.09;43.60
45467;BME280;31212;49.734;8.490;2022-09-03T13:16:54;99411.28;;;29.99;40.60
45467;BME280;31212;49.734;8.490;2022-09-03T13:19:30;99427.19;;;30.01;40.82
45467;BME280;31212;49.734;8.490;2022-09-03T13:22:09;99421.19;;;29.50;41.12
45467;BME280;31212;49.734;8.490;2022-09-03T13:24:48;99482.81;;;29.68;41.41
45467;BME280;31212;49.734;8.490;2022-09-03T13:27:29;99543.09;;;30.21;42.21
45467;BME280;31212;49.734;8.490;2022-09-03T13:30:05;99494.34;;;30.65;40.65
45467;BME280;31212;49.734;8.490;2022-09-03T13:32:45;99437.94;;;31.22;39.05
45467;BME280;31212;49.734;8.490;2022-09-03T13:35:23;99391.44;;;31.76;37.65
45467;BME280;31212;49.734;8.490;2022-09-03T13:37:56;99370.44;;;31.09;38.26
45467;BME280;31212;49.734;8.490;2022-09-03T13:40:32;99407.28;;;30.13;39.83
45467;BME280;31212;49.734;8.490;2022-09-03T13:43:03;99444.13;;;28.73;41.65
45467;BME280;31212;49.734;8.490;2022-09-03T13:45:40;99483.22;;;28.52;42.59
45467;BME280;31212;49.734;8.490;2022-09-03T13:48:14;99517.94;;;28.52;43.15
45467;BME280;31212;49.734;8.490;2022-09-03T13:51:03;99506.22;;;28.44;43.15
45467;BME280;31212;49.734;8.490;2022-09-03T13:53:41;99494.09;;;28.61;42.80
45467;BME280;31212;49.734;8.490;2022-09-03T13:56:18;99501.56;;;28.15;43.50
45467;BME280;31212;49.734;8.490;2022-09-03T13:58:50;99526.63;;;28.24;43.65
45467;BME280;31212;49.734;8.490;2022-09-03T14:01:25;99501.09;;;28.31;43.14
45467;BME280;31212;49.734;8.490;2022-09-03T14:03:58;99527.91;;;28.50;43.45
45467;BME280;31212;49.734;8.490;2022-09-03T14:06:38;99530.97;;;28.67;43.35
45467;BME280;31212;49.734;8.490;2022-09-03T14:09:12;99557.16;;;28.31;44.36
45467;BME280;31212;49.734;8.490;2022-09-03T14:11:48;99525.09;;;29.14;42.66
45467;BME280;31212;49.734;8.490;2022-09-03T14:14:27;99467.00;;;30.71;40.18
45467;BME280;31212;49.734;8.490;2022-09-03T14:16:59;99386.03;;;30.95;38.94
45467;BME280;31212;49.734;8.490;2022-09-03T14:19:37;99383.06;;;30.43;38.91
45467;BME280;31212;49.734;8.490;2022-09-03T14:22:10;99456.44;;;30.12;40.43
45467;BME280;31212;49.734;8.490;2022-09-03T14:24:46;99431.69;;;30.10;40.18
45467;BME280;31212;49.734;8.490;2022-09-03T14:27:22;99433.44;;;29.52;40.76
45467;BME280;31212;49.734;8.490;2022-09-03T14:29:52;99456.09;;;30.35;40.42
45467;BME280;31212;49.734;8.490;2022-09-03T14:32:27;99388.34;;;30.34;39.46
45467;BME280;31212;49.734;8.490;2022-09-03T14:35:11;99410.00;;;29.84;40.17
45467;BME280;31212;49.734;8.490;2022-09-03T14:38:03;99389.41;;;30.04;39.51
45467;BME280;31212;49.734;8.490;2022-09-03T14:40:40;99404.44;;;29.28;40.59
45467;BME280;31212;49.734;8.490;2022-09-03T14:43:24;99434.47;;;28.91;41.34
45467;BME280;31212;49.734;8.490;2022-09-03T14:46:08;99466.66;;;29.69;41.07
45467;BME280;31212;49.734;8.490;2022-09-03T14:49:03;99433.63;;;30.18;40.28
45467;BME280;31212;49.734;8.490;2022-09-03T14:51:51;99467.06;;;29.55;41.36
45467;BME280;31212;49.734;8.490;2022-09-03T14:54:29;99446.28;;;28.89;41.80
45467;BME280;31212;49.734;8.490;2022-09-03T14:57:11;99461.16;;;28.19;42.97
45467;BME280;31212;49.734;8.490;2022-09-03T15:00:01;99501.69;;;27.60;44.11
45467;BME280;31212;49.734;8.490;2022-09-03T15:02:49;99542.56;;;26.58;46.10
45467;BME280;31212;49.734;8.490;2022-09-03T15:05:38;99594.09;;;26.10;47.30
45467;BME280;31212;49.734;8.490;2022-09-03T15:08:16;99615.97;;;26.02;47.56
45467;BME280;31212;49.734;8.490;2022-09-03T15:10:53;99631.72;;;25.68;48.13
45467;BME280;31212;49.734;8.490;2022-09-03T15:13:22;99659.78;;;25.60;48.75
45467;BME280;31212;49.734;8.490;2022-09-03T15:16:00;99673.84;;;25.49;49.27
45467;BME280;31212;49.734;8.490;2022-09-03T15:18:42;99688.84;;;25.37;49.65
45467;BME280;31212;49.734;8.490;2022-09-03T15:21:20;99728.25;;;24.92;50.89
45467;BME280;31212;49.734;8.490;2022-09-03T15:23:59;99725.09;;;24.72;51.14
45467;BME280;31212;49.734;8.490;2022-09-03T15:26:49;99751.94;;;24.40;51.81
45467;BME280;31212;49.734;8.490;2022-09-03T15:29:36;99773.59;;;24.47;51.86
45467;BME280;31212;49.734;8.490;2022-09-03T15:32:11;99788.94;;;24.56;52.18
45467;BME280;31212;49.734;8.490;2022-09-03T15:34:59;99801.94;;;24.46;52.39
45467;BME280;31212;49.734;8.490;2022-09-03T15:37:33;99814.66;;;24.41;52.92
45467;BME280;31212;49.734;8.490;2022-09-03T15:40:05;99815.56;;;24.27;53.12
45467;BME280;31212;49.734;8.490;2022-09-03T15:42:35;99834.28;;;24.39;53.23
45467;BME280;31212;49.734;8.490;2022-09-03T15:45:06;99834.09;;;24.42;53.41
45467;BME280;31212;49.734;8.490;2022-09-03T15:47:38;99839.53;;;24.26;53.63
45467;BME280;31212;49.734;8.490;2022-09-03T15:50:14;99877.88;;;24.34;54.59
45467;BME280;31212;49.734;8.490;2022-09-03T15:52:51;99898.91;;;24.23;55.13
45467;BME280;31212;49.734;8.490;2022-09-03T15:55:29;99894.91;;;24.45;54.90
45467;BME280;31212;49.734;8.490;2022-09-03T15:57:59;99895.97;;;24.42;55.14
45467;BME280;31212;49.734;8.490;2022-09-03T16:00:49;99913.69;;;24.42;55.29
45467;BME280;31212;49.734;8.490;2022-09-03T16:03:18;99912.72;;;24.43;55.42
45467;BME280;31212;49.734;8.490;2022-09-03T16:05:47;99930.66;;;24.68;55.53
45467;BME280;31212;49.734;8.490;2022-09-03T16:08:19;99912.38;;;25.18;54.74
45467;BME280;31212;49.734;8.490;2022-09-03T16:10:56;99867.50;;;25.00;54.12
45467;BME280;31212;49.734;8.490;2022-09-03T16:13:39;99867.44;;;25.28;53.87
45467;BME280;31212;49.734;8.490;2022-09-03T16:16:14;99890.53;;;25.27;54.35
45467;BME280;31212;49.734;8.490;2022-09-03T16:18:51;99877.25;;;25.27;54.43
45467;BME280;31212;49.734;8.490;2022-09-03T16:21:22;99948.38;;;25.09;55.87
45467;BME280;31212;49.734;8.490;2022-09-03T16:23:54;100046.38;;;24.11;59.99
45467;BME280;31212;49.734;8.490;2022-09-03T16:26:29;100120.50;;;23.66;62.93
45467;BME280;31212;49.734;8.490;2022-09-03T16:29:00;100128.50;;;23.17;64.59
45467;BME280;31212;49.734;8.490;2022-09-03T16:31:39;100145.22;;;22.84;66.62
45467;BME280;31212;49.734;8.490;2022-09-03T16:34:12;100153.91;;;22.33;68.03
45467;BME280;31212;49.734;8.490;2022-09-03T16:36:48;100177.56;;;22.19;69.78